Apeldoorn, Netherlands
Current Conditions -  °F | °C
As of 2:25 AM on Saturday 25 Oct 2014 (Local Time) from EHDL Reporting Station
Haze Haze  
Wind Chill: 52°   Ceiling: 400
Heat Index: 52°   Visibility: 1.8mi
Dew Point: 52°   Wind: 12mph
Humidity: 100%   Direction: 200°SSW
Pressure: 29.97"   Gusts: NA
Location:  52.21°N, 5.97°E
Report Text: EHDL 250025Z AUTO 20010KT 2900 BR SCT003 OVC004 11/11 Q1015 YLO
Loading
Personal Weather Stations






























Interactive Weather Map
Tropical Storm Tracking
New forecast layout! Learn more

10-Day Weather Forecast

Advertisements
Track Severe Weather on mobile